Time;durP1;ratioP1;P1;durP2;ratioP2;P2;SDS_P1;SDS_P2;PMS_P1;PMS_P2;Temp;Humidity;BMP_temperature;BMP_pressure;BME280_temperature;BME280_humidity;BME280_pressure;Samples;Min_cycle;Max_cycle;Signal;HPM_P1;HPM_P2
2022/11/22 00:00:06;;;;;;;6.53;3.23;;;;;;;10.05;61.20;95514.31;5043873;28;20964;-71
2022/11/22 00:02:33;;;;;;;6.63;3.60;;;;;;;10.12;61.35;95502.91;5029171;28;20613;-72
2022/11/22 00:04:58;;;;;;;9.30;3.77;;;;;;;10.23;61.01;95495.50;5048119;28;20548;-72
2022/11/22 00:07:24;;;;;;;13.17;3.77;;;;;;;10.27;60.52;95502.00;5043531;28;20525;-72
2022/11/22 00:09:49;;;;;;;4.53;3.40;;;;;;;10.25;60.75;95483.84;5042862;28;20218;-71
2022/11/22 00:12:15;;;;;;;7.30;3.63;;;;;;;10.24;61.06;95482.22;5037499;28;20241;-71
2022/11/22 00:14:40;;;;;;;6.23;3.43;;;;;;;10.12;61.13;95486.38;5035489;28;20263;-72
2022/11/22 00:17:06;;;;;;;5.07;2.80;;;;;;;10.24;61.06;95481.44;5039458;28;20196;-72
2022/11/22 00:19:32;;;;;;;7.50;3.57;;;;;;;10.29;60.45;95474.63;5048290;28;20206;-72
2022/11/22 00:21:57;;;;;;;6.27;3.40;;;;;;;10.33;60.19;95479.47;5049066;28;20190;-73
2022/11/22 00:24:23;;;;;;;7.13;3.47;;;;;;;10.25;60.43;95468.13;5050485;28;20468;-73
2022/11/22 00:26:48;;;;;;;9.50;3.60;;;;;;;10.30;59.97;95473.63;5016184;28;20194;-71
2022/11/22 00:29:14;;;;;;;10.23;3.67;;;;;;;10.32;59.81;95473.41;5044825;28;20207;-70
2022/11/22 00:31:40;;;;;;;6.37;3.40;;;;;;;10.28;59.69;95475.59;5053091;28;20257;-70
2022/11/22 00:34:05;;;;;;;5.70;3.43;;;;;;;10.24;59.49;95481.44;5036891;28;20517;-70
2022/11/22 00:36:31;;;;;;;6.60;3.07;;;;;;;10.14;59.42;95479.13;5032350;28;20594;-71
2022/11/22 00:38:56;;;;;;;6.80;3.20;;;;;;;10.14;59.86;95487.78;5043979;28;20206;-71
2022/11/22 00:41:22;;;;;;;5.07;3.10;;;;;;;10.10;60.37;95480.50;5050487;28;20630;-70
2022/11/22 00:43:47;;;;;;;8.00;3.70;;;;;;;10.09;60.33;95484.13;5050270;28;20215;-70
2022/11/22 00:46:13;;;;;;;6.57;3.23;;;;;;;9.94;61.07;95487.69;5043346;28;20183;-71
2022/11/22 00:48:38;;;;;;;5.50;3.20;;;;;;;10.02;61.00;95483.28;5052479;28;20223;-70
2022/11/22 00:51:04;;;;;;;4.60;2.90;;;;;;;9.90;61.10;95490.84;5043615;28;20238;-71
2022/11/22 00:53:29;;;;;;;5.97;3.20;;;;;;;9.95;61.34;95498.94;5024537;28;20190;-72
2022/11/22 00:55:54;;;;;;;9.83;3.40;;;;;;;10.06;61.30;95497.63;5045059;28;20209;-72
2022/11/22 00:58:20;;;;;;;7.83;3.17;;;;;;;10.01;60.79;95497.38;5043075;28;20278;-71
2022/11/22 01:00:45;;;;;;;4.00;2.83;;;;;;;10.08;60.79;95513.94;5050431;28;20211;-70
2022/11/22 01:03:12;;;;;;;4.03;2.53;;;;;;;10.08;60.49;95516.56;5044115;28;20663;-70
2022/11/22 01:05:37;;;;;;;4.30;2.80;;;;;;;10.15;60.49;95522.66;5021950;28;20204;-70
2022/11/22 01:08:03;;;;;;;5.03;2.60;;;;;;;10.18;60.54;95530.13;5017822;28;20787;-70
2022/11/22 01:10:28;;;;;;;6.03;2.90;;;;;;;10.22;60.28;95533.97;5043434;28;20210;-70
2022/11/22 01:12:56;;;;;;;5.17;3.00;;;;;;;10.22;60.21;95526.09;5045911;28;20190;-70
2022/11/22 01:15:21;;;;;;;6.00;3.07;;;;;;;10.26;60.79;95523.94;5044311;28;20194;-70
2022/11/22 01:17:47;;;;;;;6.40;2.80;;;;;;;10.22;60.55;95531.34;5049939;28;20508;-70
2022/11/22 01:20:12;;;;;;;10.13;3.10;;;;;;;10.20;60.74;95522.91;5023831;28;20647;-71
2022/11/22 01:22:38;;;;;;;2.40;2.20;;;;;;;10.25;60.94;95533.59;5051137;28;20193;-70
2022/11/22 01:25:03;;;;;;;3.77;2.50;;;;;;;10.33;60.91;95529.22;5043282;28;20227;-71
2022/11/22 01:27:29;;;;;;;8.80;2.80;;;;;;;10.29;60.38;95542.69;5028251;28;20183;-71
2022/11/22 01:29:54;;;;;;;5.67;2.70;;;;;;;10.37;60.20;95546.16;5046033;28;20286;-69
2022/11/22 01:32:20;;;;;;;3.93;2.60;;;;;;;10.27;60.70;95536.81;5047172;28;20184;-71
2022/11/22 01:34:45;;;;;;;5.60;3.00;;;;;;;10.26;60.55;95543.06;5039904;28;20260;-72
2022/11/22 01:37:11;;;;;;;7.50;2.30;;;;;;;10.17;61.01;95538.16;5031341;28;20187;-70
2022/11/22 01:39:36;;;;;;;3.63;2.13;;;;;;;10.16;61.47;95529.50;5047581;28;20211;-70
2022/11/22 01:42:01;;;;;;;4.93;2.70;;;;;;;10.25;61.80;95530.97;5031727;28;20266;-70
2022/11/22 01:44:30;;;;;;;5.47;2.57;;;;;;;10.26;61.42;95535.22;5009020;28;20203;-70
2022/11/22 01:47:10;;;;;;;5.30;2.37;;;;;;;10.25;61.15;95530.97;5027831;28;20183;-72
2022/11/22 01:49:47;;;;;;;3.83;2.50;;;;;;;10.26;61.61;95523.94;5049118;28;20527;-71
2022/11/22 01:52:15;;;;;;;5.60;2.47;;;;;;;10.26;61.31;95529.97;5044299;28;20791;-70
2022/11/22 01:54:43;;;;;;;3.03;2.73;;;;;;;10.34;61.60;95534.25;5025363;28;20421;-69
2022/11/22 01:57:14;;;;;;;4.97;2.43;;;;;;;10.41;61.36;95539.56;5028940;28;20483;-70
2022/11/22 01:59:43;;;;;;;4.90;2.60;;;;;;;10.46;61.45;95537.16;5036791;28;20441;-71
2022/11/22 02:02:09;;;;;;;3.93;2.10;;;;;;;10.48;61.43;95537.78;5048180;28;20426;-70
2022/11/22 02:04:35;;;;;;;6.00;2.33;;;;;;;10.53;60.73;95545.06;5027339;28;20454;-71
2022/11/22 02:07:22;;;;;;;6.50;2.07;;;;;;;10.54;60.94;95549.31;5041449;28;20448;-70
2022/11/22 02:09:50;;;;;;;4.97;2.40;;;;;;;10.51;61.07;95549.72;5025727;28;20450;-71
2022/11/22 02:12:16;;;;;;;2.63;2.00;;;;;;;10.43;61.27;95548.03;5042150;28;20432;-70
2022/11/22 02:14:42;;;;;;;9.50;1.87;;;;;;;10.50;61.30;95541.03;5041988;28;20422;-70
2022/11/22 02:17:07;;;;;;;2.90;1.97;;;;;;;10.48;61.22;95543.03;5045548;28;20773;-69
2022/11/22 02:19:43;;;;;;;2.90;2.10;;;;;;;10.50;61.35;95541.03;5044552;28;20242;-70
2022/11/22 02:22:19;;;;;;;6.13;2.50;;;;;;;10.54;61.22;95538.81;5047940;28;20206;-71
2022/11/22 02:24:51;;;;;;;4.30;2.13;;;;;;;10.57;61.09;95543.69;5045043;28;20514;-70
2022/11/22 02:27:17;;;;;;;2.83;1.93;;;;;;;10.57;61.23;95557.59;5040043;28;20461;-68
2022/11/22 02:29:42;;;;;;;5.20;2.37;;;;;;;10.63;60.90;95569.13;5010764;28;20834;-69
2022/11/22 02:32:08;;;;;;;2.80;2.33;;;;;;;10.64;61.11;95568.13;5046188;28;20434;-69
2022/11/22 02:34:46;;;;;;;2.27;1.77;;;;;;;10.65;61.02;95566.31;5038310;28;20210;-70
2022/11/22 02:37:15;;;;;;;1.50;1.40;;;;;;;10.58;61.03;95568.88;5013508;28;20535;-70
2022/11/22 02:39:42;;;;;;;3.00;1.90;;;;;;;10.58;61.24;95567.09;5046463;28;20456;-70
2022/11/22 02:42:08;;;;;;;3.13;2.17;;;;;;;10.67;61.25;95574.78;5046512;28;20495;-69
2022/11/22 02:44:33;;;;;;;2.93;2.10;;;;;;;10.69;60.84;95568.34;5037002;28;20560;-71
2022/11/22 02:46:59;;;;;;;4.30;2.10;;;;;;;10.63;60.78;95566.50;5032859;28;20183;-69
2022/11/22 02:49:24;;;;;;;3.53;1.90;;;;;;;10.69;61.07;95568.34;5049204;28;20577;-70
2022/11/22 02:51:51;;;;;;;2.30;2.10;;;;;;;10.67;61.22;95572.16;5034423;28;20187;-70
2022/11/22 02:54:17;;;;;;;5.20;1.73;;;;;;;10.67;60.73;95565.09;5036301;28;20532;-70
2022/11/22 02:56:42;;;;;;;4.03;2.07;;;;;;;10.67;61.04;95564.31;5037836;28;20433;-70
2022/11/22 02:59:08;;;;;;;3.17;1.80;;;;;;;10.67;61.15;95559.06;5036304;28;20952;-71
2022/11/22 03:01:33;;;;;;;2.90;1.93;;;;;;;10.67;60.73;95572.16;5015624;28;20192;-71
2022/11/22 03:03:59;;;;;;;3.57;2.10;;;;;;;10.57;61.44;95578.56;5040514;28;20203;-71
2022/11/22 03:06:24;;;;;;;3.80;2.00;;;;;;;10.60;61.16;95575.53;5031764;28;20190;-70
2022/11/22 03:08:50;;;;;;;2.80;1.67;;;;;;;10.53;61.53;95576.50;5035067;28;20207;-70
2022/11/22 03:11:15;;;;;;;2.17;1.70;;;;;;;10.54;61.43;95572.88;5043783;28;20221;-70
2022/11/22 03:13:41;;;;;;;2.63;1.90;;;;;;;10.55;61.52;95575.31;5031479;28;20199;-70
2022/11/22 03:16:07;;;;;;;2.93;2.03;;;;;;;10.60;61.52;95580.78;5043301;28;20612;-70
2022/11/22 03:18:33;;;;;;;4.03;2.00;;;;;;;10.58;61.16;95589.84;5024988;28;20179;-70
2022/11/22 03:21:03;;;;;;;2.60;1.57;;;;;;;10.62;61.06;95592.88;5044586;28;20429;-70
2022/11/22 03:23:29;;;;;;;6.27;1.93;;;;;;;10.58;61.25;95592.44;5022961;28;20425;-71
2022/11/22 03:25:54;;;;;;;3.87;2.00;;;;;;;10.55;61.14;95587.59;5039657;28;20491;-69
2022/11/22 03:28:20;;;;;;;2.57;2.20;;;;;;;10.49;61.19;95596.22;5029311;28;20512;-71
2022/11/22 03:30:45;;;;;;;3.10;1.87;;;;;;;10.33;61.55;95589.44;5039956;28;20675;-70
2022/11/22 03:33:10;;;;;;;5.17;2.00;;;;;;;10.37;61.65;95595.91;5037975;28;20204;-70
2022/11/22 03:35:36;;;;;;;4.90;1.90;;;;;;;10.40;61.61;95601.59;4999544;28;20187;-69
2022/11/22 03:38:02;;;;;;;4.00;2.13;;;;;;;10.40;61.86;95600.78;5049573;28;20213;-70
2022/11/22 03:40:27;;;;;;;1.70;1.60;;;;;;;10.41;61.59;95597.19;5049742;28;20206;-72
2022/11/22 03:42:52;;;;;;;4.03;2.10;;;;;;;10.42;61.84;95606.66;5053153;28;20194;-71
2022/11/22 03:45:18;;;;;;;5.90;2.10;;;;;;;10.49;61.87;95599.66;5049795;28;20249;-72
2022/11/22 03:47:43;;;;;;;2.30;1.87;;;;;;;10.51;61.54;95597.66;5042553;28;20195;-71
2022/11/22 03:50:09;;;;;;;2.90;1.83;;;;;;;10.50;61.36;95588.16;5048147;28;20293;-71
2022/11/22 03:52:35;;;;;;;3.83;2.10;;;;;;;10.49;61.25;95588.38;5047558;28;20291;-71
2022/11/22 03:55:01;;;;;;;3.53;1.90;;;;;;;10.50;61.41;95596.03;5040598;28;20172;-70
2022/11/22 03:57:26;;;;;;;6.00;2.00;;;;;;;10.46;61.49;95594.78;5048036;28;20466;-69
2022/11/22 03:59:51;;;;;;;3.80;2.10;;;;;;;10.47;61.29;95596.41;5031770;28;20287;-69
2022/11/22 04:02:17;;;;;;;3.00;1.87;;;;;;;10.45;61.75;95599.22;5031128;28;20588;-69
2022/11/22 04:04:42;;;;;;;9.07;2.37;;;;;;;10.42;61.94;95596.19;5033361;28;20280;-70
2022/11/22 04:07:08;;;;;;;5.87;2.23;;;;;;;10.39;61.92;95593.94;5041978;28;20191;-71
2022/11/22 04:09:33;;;;;;;2.30;1.90;;;;;;;10.38;61.76;95593.13;5031231;28;20211;-72
2022/11/22 04:11:59;;;;;;;7.03;1.93;;;;;;;10.35;61.64;95603.13;5042319;28;20266;-72
2022/11/22 04:17:11;;;;;;;5.87;2.60;;;;;;;10.45;61.40;95603.66;5042126;28;20188;-71
2022/11/22 04:19:37;;;;;;;4.07;1.73;;;;;;;10.41;60.88;95610.28;5050415;28;20556;-72
2022/11/22 04:22:02;;;;;;;4.90;2.27;;;;;;;10.41;61.13;95612.88;5043937;28;20517;-69
2022/11/22 04:27:12;;;;;;;5.20;2.10;;;;;;;10.47;61.01;95611.31;5042779;28;20557;-72
2022/11/22 04:29:37;;;;;;;2.50;1.90;;;;;;;10.42;60.61;95610.06;5037555;28;20449;-72
2022/11/22 04:34:46;;;;;;;6.53;2.30;;;;;;;10.15;61.70;95615.06;5026064;28;20191;-71
2022/11/22 04:37:12;;;;;;;4.57;1.87;;;;;;;10.19;61.56;95615.50;5037734;28;20484;-71
2022/11/22 04:39:37;;;;;;;4.93;2.13;;;;;;;10.18;61.81;95613.06;5047152;28;20207;-72
2022/11/22 04:44:47;;;;;;;6.90;1.73;;;;;;;10.15;61.48;95609.81;5035430;28;20325;-72
2022/11/22 04:50:00;;;;;;;4.00;1.87;;;;;;;10.16;61.46;95602.78;5043462;28;20223;-70
2022/11/22 04:55:09;;;;;;;5.83;2.93;;;;;;;9.95;60.96;95603.63;5013208;28;20438;-73
2022/11/22 04:57:35;;;;;;;7.90;2.60;;;;;;;9.86;60.60;95608.16;5026362;28;20454;-69
2022/11/22 05:00:00;;;;;;;3.63;3.00;;;;;;;9.79;61.39;95597.63;5017004;28;20761;-71
2022/11/22 05:02:25;;;;;;;6.10;3.50;;;;;;;9.83;61.92;95601.50;5031608;28;20650;-70
2022/11/22 05:04:51;;;;;;;4.97;2.70;;;;;;;9.72;61.95;95590.72;5029232;28;20300;-70
2022/11/22 05:07:16;;;;;;;2.80;2.00;;;;;;;9.64;62.43;95600.31;5030405;28;20210;-71
2022/11/22 05:09:42;;;;;;;16.43;2.37;;;;;;;9.73;61.93;95616.69;5034798;28;20239;-71
2022/11/22 05:12:07;;;;;;;2.50;2.00;;;;;;;9.74;61.92;95612.25;5029920;28;20237;-71
2022/11/22 05:14:33;;;;;;;3.60;2.30;;;;;;;9.82;62.09;95614.78;5032267;28;20271;-71
2022/11/22 05:16:58;;;;;;;10.40;2.40;;;;;;;9.82;61.88;95626.03;5031846;28;20322;-71
2022/11/22 05:19:24;;;;;;;8.57;2.20;;;;;;;9.83;61.64;95624.22;5039020;28;20285;-71
2022/11/22 05:21:49;;;;;;;2.77;2.37;;;;;;;9.75;61.75;95634.81;5026796;28;20198;-70
2022/11/22 05:24:14;;;;;;;8.73;2.90;;;;;;;9.74;61.63;95641.88;5024423;28;20671;-71
2022/11/22 05:26:40;;;;;;;5.57;2.90;;;;;;;9.73;61.19;95647.25;5028151;28;20251;-71
2022/11/22 05:29:09;;;;;;;3.67;2.60;;;;;;;9.64;61.22;95649.22;5023946;28;20200;-71
2022/11/22 05:31:37;;;;;;;3.43;2.30;;;;;;;9.60;61.74;95643.50;5029713;28;20214;-71
2022/11/22 05:34:03;;;;;;;6.33;3.80;;;;;;;9.49;61.29;95657.06;5027842;28;20471;-70
2022/11/22 05:36:31;;;;;;;11.17;6.30;;;;;;;9.47;61.19;95651.19;5033954;28;20428;-72
2022/11/22 05:38:57;;;;;;;12.20;7.30;;;;;;;9.39;61.50;95652.09;5000981;28;20833;-72
2022/11/22 05:41:22;;;;;;;10.60;5.43;;;;;;;9.28;61.77;95661.25;5032118;28;20429;-71
2022/11/22 05:43:48;;;;;;;9.90;4.20;;;;;;;9.30;62.45;95659.28;5026087;28;20267;-71
2022/11/22 05:46:16;;;;;;;5.80;3.43;;;;;;;9.29;62.29;95641.13;5017940;28;20219;-71
2022/11/22 05:48:44;;;;;;;6.43;4.20;;;;;;;9.41;62.09;95654.56;5023988;28;20179;-70
2022/11/22 05:51:12;;;;;;;22.07;14.00;;;;;;;9.42;62.34;95654.38;5015112;28;20455;-73
2022/11/22 05:53:39;;;;;;;43.27;25.10;;;;;;;9.48;62.17;95650.22;5023387;28;20422;-71
2022/11/22 05:56:09;;;;;;;49.70;30.83;;;;;;;9.47;61.98;95646.78;5022163;28;20442;-69
2022/11/22 05:58:35;;;;;;;40.90;25.10;;;;;;;9.36;62.78;95644.66;5023473;28;20895;-70
2022/11/22 06:01:05;;;;;;;22.00;12.63;;;;;;;9.37;62.07;95659.34;5017521;28;20519;-71
2022/11/22 06:03:31;;;;;;;9.90;5.20;;;;;;;9.30;62.30;95668.91;5013820;28;20427;-71
2022/11/22 06:05:56;;;;;;;5.80;3.90;;;;;;;9.27;62.85;95664.84;5015681;28;20513;-70
2022/11/22 06:08:22;;;;;;;9.73;2.90;;;;;;;9.31;62.87;95670.53;5031724;28;20663;-70
2022/11/22 06:10:47;;;;;;;3.17;2.40;;;;;;;9.37;62.22;95677.66;5014330;28;20259;-70
2022/11/22 06:13:13;;;;;;;7.00;2.70;;;;;;;9.48;62.38;95682.41;5018528;28;20203;-71
2022/11/22 06:15:38;;;;;;;6.77;2.90;;;;;;;9.47;62.27;95690.44;5018978;28;20191;-72
2022/11/22 06:18:04;;;;;;;9.10;3.47;;;;;;;9.45;62.35;95687.22;5025968;28;20274;-68
2022/11/22 06:20:29;;;;;;;6.17;3.60;;;;;;;9.42;62.32;95690.97;5024774;28;20210;-71
2022/11/22 06:22:57;;;;;;;5.50;2.90;;;;;;;9.42;62.21;95687.56;5011269;28;20275;-69
2022/11/22 06:25:23;;;;;;;5.90;2.77;;;;;;;9.41;62.18;95685.94;5026656;28;20593;-70
2022/11/22 06:27:48;;;;;;;7.63;3.60;;;;;;;9.32;62.78;95693.88;5023227;28;20435;-70
2022/11/22 06:30:14;;;;;;;6.80;4.67;;;;;;;9.30;62.78;95700.28;5031092;28;20571;-70
2022/11/22 06:32:40;;;;;;;15.43;3.97;;;;;;;9.30;62.90;95698.47;5028933;28;20179;-70
2022/11/22 06:35:05;;;;;;;5.23;3.00;;;;;;;9.38;62.84;95703.59;5014407;28;20423;-70
2022/11/22 06:37:31;;;;;;;3.90;2.70;;;;;;;9.44;62.77;95706.50;5031242;28;20219;-70
2022/11/22 06:39:56;;;;;;;7.30;3.10;;;;;;;9.46;62.61;95704.50;5013276;28;20212;-71
2022/11/22 06:42:22;;;;;;;8.90;3.37;;;;;;;9.40;62.63;95721.72;5027786;28;20195;-69
2022/11/22 06:44:47;;;;;;;3.40;3.10;;;;;;;9.42;62.35;95718.94;5024055;28;20302;-70
2022/11/22 06:47:13;;;;;;;9.50;3.43;;;;;;;9.43;62.88;95721.34;5005408;28;20192;-68
2022/11/22 06:49:38;;;;;;;8.10;3.30;;;;;;;9.43;62.66;95728.41;5026377;28;20204;-69
2022/11/22 06:52:04;;;;;;;6.47;3.00;;;;;;;9.44;62.67;95733.44;5026257;28;20270;-68
2022/11/22 06:54:29;;;;;;;6.33;2.80;;;;;;;9.52;62.56;95745.63;5022317;28;20594;-70
2022/11/22 06:56:55;;;;;;;7.83;2.80;;;;;;;9.57;61.81;95753.75;5028635;28;20218;-71
2022/11/22 06:59:20;;;;;;;7.57;2.90;;;;;;;9.60;62.05;95758.59;5024061;28;20886;-70
2022/11/22 07:01:45;;;;;;;12.83;2.90;;;;;;;9.60;62.10;95758.59;5020203;28;20262;-69
2022/11/22 07:04:11;;;;;;;8.30;2.63;;;;;;;9.59;62.60;95764.81;5030812;28;20198;-69
2022/11/22 07:06:37;;;;;;;4.47;2.50;;;;;;;9.60;62.66;95771.66;5025229;28;20194;-69
2022/11/22 07:09:05;;;;;;;10.27;3.50;;;;;;;9.55;62.72;95765.34;5046952;28;20289;-70
2022/11/22 07:11:31;;;;;;;9.07;4.40;;;;;;;9.51;62.35;95770.94;5035548;28;20427;-70
2022/11/22 07:13:58;;;;;;;8.47;5.03;;;;;;;9.42;62.57;95772.03;5032432;28;20423;-71
2022/11/22 07:16:24;;;;;;;14.00;5.60;;;;;;;9.23;63.35;95778.59;5003343;28;20429;-70
2022/11/22 07:18:49;;;;;;;10.50;5.57;;;;;;;9.19;63.38;95777.34;5032928;28;20428;-70
2022/11/22 07:21:17;;;;;;;8.27;5.47;;;;;;;9.33;63.36;95778.34;5029782;28;20187;-70
2022/11/22 07:23:45;;;;;;;10.73;5.50;;;;;;;9.42;63.07;95792.94;5034975;28;20190;-71
2022/11/22 07:26:11;;;;;;;8.20;5.43;;;;;;;9.44;62.95;95785.75;5013411;28;20515;-71
2022/11/22 07:28:37;;;;;;;6.60;4.30;;;;;;;9.48;62.72;95787.03;5030074;28;20442;-70
2022/11/22 07:31:04;;;;;;;7.17;3.87;;;;;;;9.44;63.09;95795.41;5036254;28;20426;-71
2022/11/22 07:33:30;;;;;;;8.50;4.87;;;;;;;9.49;63.00;95803.50;5021676;28;20201;-72
2022/11/22 07:35:55;;;;;;;6.67;3.60;;;;;;;9.50;62.45;95795.50;5037312;28;20454;-71
2022/11/22 07:38:21;;;;;;;13.87;4.40;;;;;;;9.49;61.95;95801.72;5007552;28;20194;-70
2022/11/22 07:40:46;;;;;;;8.33;3.77;;;;;;;9.51;62.61;95812.00;5026464;28;20207;-70
2022/11/22 07:43:11;;;;;;;16.63;4.67;;;;;;;9.54;62.84;95806.41;5028473;28;20237;-70
2022/11/22 07:45:37;;;;;;;6.87;3.93;;;;;;;9.57;62.64;95815.69;5032265;28;20211;-70
2022/11/22 07:48:02;;;;;;;10.23;4.03;;;;;;;9.66;62.44;95815.44;5027032;28;20188;-70
2022/11/22 07:50:28;;;;;;;11.10;3.53;;;;;;;9.68;62.15;95818.69;5036215;28;20216;-71
2022/11/22 07:52:57;;;;;;;10.40;3.93;;;;;;;9.69;61.94;95819.47;5036882;28;20245;-70
2022/11/22 07:55:24;;;;;;;7.47;3.87;;;;;;;9.71;62.03;95824.53;5033618;28;20207;-70
2022/11/22 07:57:51;;;;;;;13.10;3.53;;;;;;;9.65;61.71;95826.88;5039821;28;20897;-70
2022/11/22 08:00:17;;;;;;;11.83;3.23;;;;;;;9.65;61.62;95828.66;5031874;28;21105;-70
2022/11/22 08:02:43;;;;;;;8.87;2.53;;;;;;;9.57;62.26;95821.75;5029698;28;20456;-71
2022/11/22 08:05:09;;;;;;;8.80;3.00;;;;;;;9.63;62.13;95820.22;5039620;28;20474;-71
2022/11/22 08:07:34;;;;;;;14.87;3.40;;;;;;;9.73;62.15;95825.97;5030875;28;20806;-71
2022/11/22 08:10:00;;;;;;;14.03;3.03;;;;;;;9.76;62.13;95828.25;5024948;28;20303;-71
2022/11/22 08:12:25;;;;;;;8.30;3.43;;;;;;;9.83;61.84;95820.47;5026460;28;20642;-70
2022/11/22 08:14:50;;;;;;;9.33;3.30;;;;;;;9.74;61.77;95825.00;5030394;28;20202;-70
2022/11/22 08:17:16;;;;;;;8.73;3.40;;;;;;;9.75;62.45;95820.56;5021184;28;20271;-71
2022/11/22 08:19:42;;;;;;;7.17;2.97;;;;;;;9.79;62.36;95827.06;5033297;28;20223;-71
2022/11/22 08:22:07;;;;;;;7.77;3.60;;;;;;;9.84;61.97;95822.09;5022832;28;20845;-70
2022/11/22 08:24:32;;;;;;;11.37;4.40;;;;;;;9.88;61.85;95827.78;5043587;28;20338;-70
2022/11/22 08:26:58;;;;;;;13.03;5.17;;;;;;;9.90;62.02;95828.38;5033916;28;20191;-71
2022/11/22 08:29:23;;;;;;;12.50;4.63;;;;;;;9.84;62.08;95825.53;5026483;28;20229;-70
2022/11/22 08:31:49;;;;;;;15.20;4.70;;;;;;;9.93;62.03;95813.16;5035608;28;20294;-70
2022/11/22 08:34:14;;;;;;;13.73;4.40;;;;;;;9.97;62.18;95816.22;5026916;28;20204;-70
2022/11/22 08:36:40;;;;;;;16.90;3.90;;;;;;;10.08;62.09;95818.38;5025501;28;20277;-69
2022/11/22 08:39:05;;;;;;;14.40;4.70;;;;;;;10.13;61.83;95820.44;5031812;28;20285;-69
2022/11/22 08:41:31;;;;;;;9.83;4.67;;;;;;;10.17;61.72;95819.09;5032327;28;20671;-70
2022/11/22 08:43:56;;;;;;;14.40;4.97;;;;;;;10.23;61.69;95810.47;5032336;28;20267;-69
2022/11/22 08:46:21;;;;;;;9.93;4.30;;;;;;;10.21;61.76;95819.53;5027407;28;20185;-70
2022/11/22 08:48:47;;;;;;;11.83;3.93;;;;;;;10.23;61.88;95810.47;5038795;28;20213;-70
2022/11/22 08:51:13;;;;;;;7.33;3.60;;;;;;;10.29;61.66;95804.53;5038497;28;20270;-70
2022/11/22 08:53:40;;;;;;;11.87;2.90;;;;;;;10.25;61.84;95805.06;5042239;28;20276;-69
2022/11/22 08:56:08;;;;;;;7.20;3.00;;;;;;;10.20;61.81;95808.25;5032948;28;22147;-70
2022/11/22 08:58:34;;;;;;;7.47;3.30;;;;;;;10.23;61.46;95794.78;5037231;28;20508;-72
2022/11/22 09:01:07;;;;;;;7.77;3.20;;;;;;;10.25;61.72;95795.41;5037215;28;20481;-71
2022/11/22 09:03:34;;;;;;;11.90;2.90;;;;;;;10.35;61.88;95794.28;5032334;28;20205;-71
2022/11/22 09:06:01;;;;;;;9.53;3.40;;;;;;;10.45;61.87;95793.03;5045046;28;20466;-70
2022/11/22 09:08:27;;;;;;;8.37;3.20;;;;;;;10.55;61.35;95787.50;5048752;28;20440;-71
2022/11/22 09:10:52;;;;;;;11.40;3.63;;;;;;;10.62;61.24;95782.31;5046060;28;20450;-71
2022/11/22 09:13:17;;;;;;;11.13;2.90;;;;;;;10.66;61.24;95782.75;5041707;28;20270;-70
2022/11/22 09:15:43;;;;;;;6.27;2.70;;;;;;;10.67;61.06;95785.16;5046600;28;20190;-71
2022/11/22 09:18:08;;;;;;;9.83;3.57;;;;;;;10.68;61.20;95778.94;5041267;28;20182;-71
2022/11/22 09:20:34;;;;;;;11.80;3.70;;;;;;;10.78;61.28;95778.63;5041325;28;20622;-70
2022/11/22 09:23:01;;;;;;;52.33;6.10;;;;;;;10.82;61.32;95785.13;5044798;28;20195;-71
2022/11/22 09:25:26;;;;;;;115.03;10.60;;;;;;;10.91;61.26;95786.59;5043599;28;20238;-71
2022/11/22 09:27:51;;;;;;;22.97;3.93;;;;;;;10.94;60.79;95795.09;5046703;28;20432;-70
2022/11/22 09:30:17;;;;;;;185.57;18.03;;;;;;;10.92;60.91;95813.59;5040467;28;20206;-70
2022/11/22 09:32:43;;;;;;;93.03;10.60;;;;;;;10.93;60.49;95810.00;5044680;28;20216;-72
2022/11/22 09:35:08;;;;;;;26.57;3.80;;;;;;;10.97;60.08;95810.41;5032409;28;20563;-71
2022/11/22 09:37:34;;;;;;;6.63;2.70;;;;;;;11.03;60.19;95817.53;5048174;28;20422;-71
2022/11/22 09:39:59;;;;;;;10.70;2.70;;;;;;;11.03;60.43;95820.97;5045701;28;20797;-70
2022/11/22 09:42:46;;;;;;;11.23;2.30;;;;;;;11.01;59.97;95832.66;5041645;28;20213;-70
2022/11/22 09:45:28;;;;;;;8.60;2.63;;;;;;;11.01;60.29;95832.66;5043899;28;20211;-70
2022/11/22 09:48:22;;;;;;;6.50;2.53;;;;;;;11.01;60.29;95838.72;5043729;28;20433;-71
2022/11/22 09:51:05;;;;;;;8.87;2.20;;;;;;;11.03;59.75;95835.91;5040859;28;20449;-71
2022/11/22 09:53:43;;;;;;;5.80;2.07;;;;;;;11.03;59.39;95841.13;5031884;28;20429;-71
2022/11/22 09:56:15;;;;;;;7.70;2.00;;;;;;;11.14;59.03;95848.50;5026578;28;20801;-70
2022/11/22 09:58:59;;;;;;;6.40;2.30;;;;;;;11.08;58.70;95844.00;5041796;28;20441;-71
2022/11/22 10:01:33;;;;;;;4.60;2.37;;;;;;;11.06;59.06;95851.25;5035120;28;20414;-71
2022/11/22 10:04:05;;;;;;;8.60;2.43;;;;;;;11.02;58.74;95852.63;5046597;28;20441;-71
2022/11/22 10:06:37;;;;;;;7.63;2.90;;;;;;;10.78;59.40;95861.66;5043166;28;20421;-70
2022/11/22 10:09:12;;;;;;;7.73;2.30;;;;;;;10.74;59.29;95859.44;5048356;28;20446;-72
2022/11/22 10:11:43;;;;;;;7.23;2.60;;;;;;;10.88;59.36;95862.97;5040323;28;20513;-69
2022/11/22 10:14:43;;;;;;;3.87;2.30;;;;;;;10.96;59.00;95859.41;5045964;28;20772;-71
2022/11/22 10:17:21;;;;;;;5.13;2.50;;;;;;;11.01;58.68;95867.56;5037458;28;20517;-71
2022/11/22 10:20:10;;;;;;;8.20;2.30;;;;;;;11.02;58.75;95865.72;5043461;28;20449;-70
2022/11/22 10:22:35;;;;;;;8.87;3.07;;;;;;;11.06;58.59;95866.97;5029579;28;20541;-73
2022/11/22 10:25:05;;;;;;;7.13;2.47;;;;;;;11.14;58.59;95869.47;5046542;28;20573;-70
2022/11/22 10:27:31;;;;;;;10.43;2.97;;;;;;;11.11;59.07;95876.91;5036553;28;20191;-70
2022/11/22 10:30:04;;;;;;;5.30;3.27;;;;;;;10.98;57.95;95873.16;5007773;28;20464;-71
2022/11/22 10:32:52;;;;;;;12.63;2.47;;;;;;;10.91;58.09;95864.41;5019110;28;20436;-71
2022/11/22 10:35:40;;;;;;;5.60;1.93;;;;;;;10.91;57.66;95870.47;5039345;28;20617;-72
2022/11/22 10:38:29;;;;;;;16.33;2.80;;;;;;;11.02;57.17;95871.78;5046656;28;20567;-70
2022/11/22 10:41:28;;;;;;;10.27;2.30;;;;;;;10.91;57.24;95870.47;5036877;28;20799;-71
2022/11/22 10:44:19;;;;;;;22.40;3.83;;;;;;;11.07;56.69;95868.59;5040095;28;20423;-71
2022/11/22 10:47:08;;;;;;;6.53;2.67;;;;;;;11.05;56.46;95875.84;5029094;28;20563;-70
2022/11/22 10:49:51;;;;;;;6.87;2.43;;;;;;;11.13;56.02;95878.31;5029712;28;20450;-72
2022/11/22 10:52:37;;;;;;;7.20;2.03;;;;;;;11.05;55.73;95879.25;5040922;28;20492;-71
2022/11/22 10:55:24;;;;;;;17.83;2.00;;;;;;;11.03;55.44;95870.78;5031650;28;20422;-71
2022/11/22 10:58:02;;;;;;;4.93;1.60;;;;;;;11.12;55.08;95862.78;5033272;28;20558;-69
2022/11/22 11:00:30;;;;;;;7.17;1.97;;;;;;;10.68;54.09;95862.78;5035886;28;20532;-71
2022/11/22 11:03:08;;;;;;;6.23;2.43;;;;;;;10.95;54.08;95859.63;5036081;28;20803;-71
2022/11/22 11:05:42;;;;;;;11.77;2.30;;;;;;;11.02;53.66;95863.94;5036808;28;20472;-71
2022/11/22 11:08:12;;;;;;;26.10;3.40;;;;;;;11.14;53.18;95866.03;5045206;28;20465;-72
2022/11/22 11:10:39;;;;;;;20.03;2.70;;;;;;;11.15;53.18;95862.44;5045182;28;20449;-71
2022/11/22 11:13:33;;;;;;;6.17;1.70;;;;;;;11.07;52.96;95863.38;5038614;28;20429;-70
2022/11/22 11:15:59;;;;;;;9.15;2.10;;;;;;;11.07;52.99;95858.91;5025188;28;20919;-71
2022/11/22 11:18:42;;;;;;;4.27;1.83;;;;;;;11.16;52.87;95862.22;5041327;28;20719;-71
2022/11/22 11:21:12;;;;;;;82.47;5.90;;;;;;;11.25;52.26;95864.69;5045146;28;21028;-72
2022/11/22 11:23:37;;;;;;;29.00;3.33;;;;;;;11.26;51.82;95855.84;5043208;28;20429;-70
2022/11/22 11:26:27;;;;;;;10.30;2.00;;;;;;;11.21;51.74;95851.16;5047308;28;20465;-70
2022/11/22 11:29:14;;;;;;;60.20;5.30;;;;;;;11.16;51.32;95850.91;5034281;28;20571;-71
2022/11/22 11:31:45;;;;;;;9.30;2.03;;;;;;;11.34;51.50;95842.63;5036832;28;20446;-71
2022/11/22 11:34:22;;;;;;;6.10;1.43;;;;;;;11.36;51.37;95843.19;5013439;28;20501;-70
2022/11/22 11:36:49;;;;;;;8.67;1.83;;;;;;;10.94;51.35;95845.69;5041668;28;20445;-71
2022/11/22 11:39:31;;;;;;;6.83;1.70;;;;;;;11.20;51.11;95846.91;5041817;28;20453;-71
2022/11/22 11:41:57;;;;;;;6.33;1.50;;;;;;;11.11;51.23;95848.06;5041948;28;21030;-72
2022/11/22 11:44:36;;;;;;;3.60;1.50;;;;;;;11.26;50.71;95845.34;5036573;28;20533;-72
2022/11/22 11:47:03;;;;;;;60.27;4.80;;;;;;;11.41;50.62;95834.75;4999784;28;20234;-72
2022/11/22 11:49:31;;;;;;;7.43;1.80;;;;;;;11.50;49.95;95831.81;5031101;28;20856;-70
2022/11/22 11:52:09;;;;;;;6.63;1.70;;;;;;;11.60;49.61;95828.84;5041353;28;20430;-69
2022/11/22 11:54:34;;;;;;;7.73;1.70;;;;;;;11.72;49.34;95817.81;5009676;28;20465;-71